Check out our new PWSWeather beta!
PWSweather.com
Personal Weather Stations
Station Observations
GRD01
Warsaw, LesznoPL 05-084

WarsawLesznoPL 05-084

Lat: 52.257404, Lon: 20.564847

Elevation: 298

Station Type: WH3080

http://pogoda.kampinos.waw.pl

High Low Average
Temperature 74.5°F23.6°C 57.6°F14.2°C 66.6°F19.2°C
Dew Point 54.6°F12.6°C 48.2°F9.0°C 51.6°F10.9°C
Winds 10.7 mph 17.2 kmh Calm Calm 4.0 mph S6.4 kmh S
Wind Gusts 15.2 mph24.5 kmh -- 7.0 mph11.3 kmh
Humidity 80% 42% 60%
Pressure 30.45 in1031.2 mb 30.39 in1029.1 mb -
Precipitation 0.00 in0.0 mm - -
Hour Temp Dew Point Humidity Winds Wind Gusts Pressure Precip Precip Rate Daily Precip Total
12:00 AM 64.0°F17.8°C 47.1°F8.4°C 54% 2.2 mph NE3.5 kmh NE 6.0 mph9.7 kmh 30.45 in1031.2 mb 0.00 in0.0 mm 0.00 in0.0 mm 0.00 in0.0 mm
12:15 AM 63.9°F17.7°C 46.9°F8.3°C 54% 2.2 mph NNE3.5 kmh NNE 6.0 mph9.7 kmh 30.44 in1030.8 mb 0.00 in0.0 mm 0.00 in0.0 mm 0.00 in0.0 mm
12:30 AM 63.7°F17.6°C 47.2°F8.4°C 55% 2.2 mph NE3.5 kmh NE 3.8 mph6.1 kmh 30.43 in1030.5 mb 0.00 in0.0 mm 0.00 in0.0 mm 0.00 in0.0 mm
12:45 AM 63.3°F17.4°C 49.2°F9.6°C 60% 3.1 mph NE5.0 kmh NE 5.4 mph8.7 kmh 30.44 in1030.8 mb 0.00 in0.0 mm 0.00 in0.0 mm 0.00 in0.0 mm
01:00 AM 63.3°F17.4°C 49.2°F9.6°C 60% 4.5 mph N7.2 kmh N 6.0 mph9.7 kmh 30.44 in1030.8 mb 0.00 in0.0 mm 0.00 in0.0 mm 0.00 in0.0 mm
01:15 AM 62.8°F17.1°C 49.1°F9.5°C 61% 3.8 mph NNE6.1 kmh NNE 5.4 mph8.7 kmh 30.44 in1030.8 mb 0.00 in0.0 mm 0.00 in0.0 mm 0.00 in0.0 mm
01:30 AM 62.4°F16.9°C 48.8°F9.3°C 61% 3.1 mph NNE5.0 kmh NNE 6.0 mph9.7 kmh 30.45 in1031.2 mb 0.00 in0.0 mm 0.00 in0.0 mm 0.00 in0.0 mm
01:45 AM 61.9°F16.6°C 48.7°F9.3°C 62% 3.1 mph NNE5.0 kmh NNE 6.0 mph9.7 kmh 30.45 in1031.2 mb 0.00 in0.0 mm 0.00 in0.0 mm 0.00 in0.0 mm
02:00 AM 61.7°F16.5°C 49.0°F9.4°C 63% 3.8 mph NE6.1 kmh NE 7.6 mph12.2 kmh 30.45 in1031.2 mb 0.00 in0.0 mm 0.00 in0.0 mm 0.00 in0.0 mm
02:15 AM 61.3°F16.3°C 49.1°F9.5°C 64% 5.4 mph N8.7 kmh N 7.6 mph12.2 kmh 30.45 in1031.2 mb 0.00 in0.0 mm 0.00 in0.0 mm 0.00 in0.0 mm
02:30 AM 61.0°F16.1°C 49.1°F9.5°C 65% 2.2 mph NNE3.5 kmh NNE 6.0 mph9.7 kmh 30.45 in1031.2 mb 0.00 in0.0 mm 0.00 in0.0 mm 0.00 in0.0 mm
02:45 AM 60.4°F15.8°C 49.0°F9.4°C 66% 4.5 mph NNE7.2 kmh NNE 6.0 mph9.7 kmh 30.45 in1031.2 mb 0.00 in0.0 mm 0.00 in0.0 mm 0.00 in0.0 mm
03:00 AM 60.1°F15.6°C 49.1°F9.5°C 67% 3.1 mph NNE5.0 kmh NNE 7.6 mph12.2 kmh 30.45 in1031.2 mb 0.00 in0.0 mm 0.00 in0.0 mm 0.00 in0.0 mm
03:15 AM 59.7°F15.4°C 49.1°F9.5°C 68% 3.1 mph NE5.0 kmh NE 6.0 mph9.7 kmh 30.45 in1031.2 mb 0.00 in0.0 mm 0.00 in0.0 mm 0.00 in0.0 mm
03:30 AM 59.2°F15.1°C 49.0°F9.4°C 69% 4.5 mph N7.2 kmh N 6.0 mph9.7 kmh 30.45 in1031.2 mb 0.00 in0.0 mm 0.00 in0.0 mm 0.00 in0.0 mm
03:45 AM 58.6°F14.8°C 48.9°F9.4°C 70% 3.8 mph NNE6.1 kmh NNE 5.4 mph8.7 kmh 30.45 in1031.2 mb 0.00 in0.0 mm 0.00 in0.0 mm 0.00 in0.0 mm
04:00 AM 57.9°F14.4°C 48.2°F9.0°C 70% 2.2 mph NE3.5 kmh NE 3.8 mph6.1 kmh 30.45 in1031.2 mb 0.00 in0.0 mm 0.00 in0.0 mm 0.00 in0.0 mm
04:15 AM 57.6°F14.2°C 48.2°F9.0°C 71% 2.2 mph NE3.5 kmh NE 4.5 mph7.2 kmh 30.45 in1031.2 mb 0.00 in0.0 mm 0.00 in0.0 mm 0.00 in0.0 mm
04:30 AM 57.7°F14.3°C 48.8°F9.3°C 72% 3.1 mph NNE5.0 kmh NNE 4.5 mph7.2 kmh 30.45 in1031.2 mb 0.00 in0.0 mm 0.00 in0.0 mm 0.00 in0.0 mm
04:45 AM 57.9°F14.4°C 48.9°F9.4°C 72% 3.1 mph NNE5.0 kmh NNE 4.5 mph7.2 kmh 30.45 in1031.2 mb 0.00 in0.0 mm 0.00 in0.0 mm 0.00 in0.0 mm
05:00 AM 58.3°F14.6°C 49.7°F9.8°C 73% 6.0 mph NE9.7 kmh NE 7.6 mph12.2 kmh 30.45 in1031.2 mb 0.00 in0.0 mm 0.00 in0.0 mm 0.00 in0.0 mm
05:15 AM 58.6°F14.8°C 49.6°F9.8°C 72% 3.1 mph NNE5.0 kmh NNE 6.0 mph9.7 kmh 30.45 in1031.2 mb 0.00 in0.0 mm 0.00 in0.0 mm 0.00 in0.0 mm
05:30 AM 59.2°F15.1°C 50.2°F10.1°C 72% 3.1 mph NNE5.0 kmh NNE 5.4 mph8.7 kmh 30.45 in1031.2 mb 0.00 in0.0 mm 0.00 in0.0 mm 0.00 in0.0 mm
05:45 AM 59.7°F15.4°C 50.7°F10.4°C 72% Calm Calm 5.4 mph8.7 kmh 30.45 in1031.2 mb 0.00 in0.0 mm 0.00 in0.0 mm 0.00 in0.0 mm
06:00 AM 60.3°F15.7°C 50.8°F10.4°C 71% 3.1 mph NE5.0 kmh NE 6.0 mph9.7 kmh 30.45 in1031.2 mb 0.00 in0.0 mm 0.00 in0.0 mm 0.00 in0.0 mm
06:15 AM 60.8°F16.0°C 51.3°F10.7°C 71% 2.2 mph NE3.5 kmh NE 5.4 mph8.7 kmh 30.45 in1031.2 mb 0.00 in0.0 mm 0.00 in0.0 mm 0.00 in0.0 mm
06:30 AM 61.2°F16.2°C 51.7°F10.9°C 71% 2.2 mph NE3.5 kmh NE 4.5 mph7.2 kmh 30.45 in1031.2 mb 0.00 in0.0 mm 0.00 in0.0 mm 0.00 in0.0 mm
06:45 AM 61.2°F16.2°C 51.3°F10.7°C 70% 3.1 mph NE5.0 kmh NE 5.4 mph8.7 kmh 30.45 in1031.2 mb 0.00 in0.0 mm 0.00 in0.0 mm 0.00 in0.0 mm
07:00 AM 61.5°F16.4°C 52.0°F11.1°C 71% 2.2 mph NE3.5 kmh NE 3.1 mph5.0 kmh 30.44 in1030.8 mb 0.00 in0.0 mm 0.00 in0.0 mm 0.00 in0.0 mm
07:15 AM 61.9°F16.6°C 52.0°F11.1°C 70% 1.6 mph NE2.6 kmh NE 4.5 mph7.2 kmh 30.45 in1031.2 mb 0.00 in0.0 mm 0.00 in0.0 mm 0.00 in0.0 mm
07:30 AM 62.4°F16.9°C 52.5°F11.4°C 70% 2.2 mph NE3.5 kmh NE 3.8 mph6.1 kmh 30.45 in1031.2 mb 0.00 in0.0 mm 0.00 in0.0 mm 0.00 in0.0 mm
07:45 AM 63.3°F17.4°C 53.0°F11.7°C 69% 2.2 mph NE3.5 kmh NE 4.5 mph7.2 kmh 30.45 in1031.2 mb 0.00 in0.0 mm 0.00 in0.0 mm 0.00 in0.0 mm
08:00 AM 64.0°F17.8°C 51.2°F10.7°C 63% 1.6 mph NE2.6 kmh NE 3.1 mph5.0 kmh 30.45 in1031.2 mb 0.00 in0.0 mm 0.00 in0.0 mm 0.00 in0.0 mm
08:15 AM 65.8°F18.8°C 52.5°F11.4°C 62% 2.2 mph NE3.5 kmh NE 3.8 mph6.1 kmh 30.45 in1031.2 mb 0.00 in0.0 mm 0.00 in0.0 mm 0.00 in0.0 mm
08:30 AM 66.6°F19.2°C 52.7°F11.5°C 61% 1.6 mph SE2.6 kmh SE 4.5 mph7.2 kmh 30.45 in1031.2 mb 0.00 in0.0 mm 0.00 in0.0 mm 0.00 in0.0 mm
08:45 AM 68.0°F20.0°C 53.1°F11.7°C 59% 3.8 mph SSW6.1 kmh SSW 4.5 mph7.2 kmh 30.44 in1030.8 mb 0.00 in0.0 mm 0.00 in0.0 mm 0.00 in0.0 mm
09:00 AM 68.9°F20.5°C 54.0°F12.2°C 59% 0.7 mph S1.1 kmh S 5.4 mph8.7 kmh 30.45 in1031.2 mb 0.00 in0.0 mm 0.00 in0.0 mm 0.00 in0.0 mm
09:15 AM 70.3°F21.3°C 53.4°F11.9°C 55% 1.6 mph NW2.6 kmh NW 4.5 mph7.2 kmh 30.44 in1030.8 mb 0.00 in0.0 mm 0.00 in0.0 mm 0.00 in0.0 mm
09:30 AM 71.1°F21.7°C 53.6°F12.0°C 54% 2.2 mph W3.5 kmh W 5.4 mph8.7 kmh 30.44 in1030.8 mb 0.00 in0.0 mm 0.00 in0.0 mm 0.00 in0.0 mm
09:45 AM 71.8°F22.1°C 53.7°F12.1°C 53% 4.5 mph NW7.2 kmh NW 5.4 mph8.7 kmh 30.44 in1030.8 mb 0.00 in0.0 mm 0.00 in0.0 mm 0.00 in0.0 mm
10:00 AM 72.1°F22.3°C 53.5°F11.9°C 52% 2.2 mph N3.5 kmh N 9.2 mph14.8 kmh 30.43 in1030.5 mb 0.00 in0.0 mm 0.00 in0.0 mm 0.00 in0.0 mm
10:15 AM 72.9°F22.7°C 51.4°F10.8°C 47% 3.1 mph NW5.0 kmh NW 9.2 mph14.8 kmh 30.44 in1030.8 mb 0.00 in0.0 mm 0.00 in0.0 mm 0.00 in0.0 mm
10:30 AM 73.8°F23.2°C 51.7°F10.9°C 46% 7.6 mph NW12.2 kmh NW 9.2 mph14.8 kmh 30.43 in1030.5 mb 0.00 in0.0 mm 0.00 in0.0 mm 0.00 in0.0 mm
10:45 AM 73.9°F23.3°C 50.6°F10.3°C 44% 4.5 mph NNW7.2 kmh NNW 11.4 mph18.3 kmh 30.43 in1030.5 mb 0.00 in0.0 mm 0.00 in0.0 mm 0.00 in0.0 mm
11:00 AM 74.5°F23.6°C 51.1°F10.6°C 44% 4.5 mph NNW7.2 kmh NNW 9.8 mph15.8 kmh 30.43 in1030.5 mb 0.00 in0.0 mm 0.00 in0.0 mm 0.00 in0.0 mm
11:15 AM 74.5°F23.6°C 49.9°F9.9°C 42% 10.7 mph NNW17.2 kmh NNW 13.0 mph20.9 kmh 30.43 in1030.5 mb 0.00 in0.0 mm 0.00 in0.0 mm 0.00 in0.0 mm
11:30 AM 74.5°F23.6°C 50.5°F10.3°C 43% 3.1 mph NW5.0 kmh NW 11.4 mph18.3 kmh 30.43 in1030.5 mb 0.00 in0.0 mm 0.00 in0.0 mm 0.00 in0.0 mm
11:45 AM 73.9°F23.3°C 50.6°F10.3°C 44% 4.5 mph N7.2 kmh N 9.8 mph15.8 kmh 30.43 in1030.5 mb 0.00 in0.0 mm 0.00 in0.0 mm 0.00 in0.0 mm
12:00 PM 73.6°F23.1°C 50.9°F10.5°C 45% 7.6 mph N12.2 kmh N 11.4 mph18.3 kmh 30.44 in1030.8 mb 0.00 in0.0 mm 0.00 in0.0 mm 0.00 in0.0 mm
12:15 PM 72.9°F22.7°C 50.3°F10.2°C 45% 6.0 mph N9.7 kmh N 9.8 mph15.8 kmh 30.43 in1030.5 mb 0.00 in0.0 mm 0.00 in0.0 mm 0.00 in0.0 mm
12:30 PM 72.7°F22.6°C 50.1°F10.1°C 45% 10.7 mph N17.2 kmh N 13.0 mph20.9 kmh 30.43 in1030.5 mb 0.00 in0.0 mm 0.00 in0.0 mm 0.00 in0.0 mm
12:45 PM 73.2°F22.9°C 52.3°F11.3°C 48% 10.7 mph NNE17.2 kmh NNE 15.2 mph24.5 kmh 30.43 in1030.5 mb 0.00 in0.0 mm 0.00 in0.0 mm 0.00 in0.0 mm
01:00 PM 73.2°F22.9°C 51.8°F11.0°C 47% 7.6 mph NW12.2 kmh NW 12.1 mph19.5 kmh 30.43 in1030.5 mb 0.00 in0.0 mm 0.00 in0.0 mm 0.00 in0.0 mm
01:15 PM 73.2°F22.9°C 51.8°F11.0°C 47% 9.2 mph N14.8 kmh N 12.1 mph19.5 kmh 30.42 in1030.1 mb 0.00 in0.0 mm 0.00 in0.0 mm 0.00 in0.0 mm
01:30 PM 72.3°F22.4°C 53.2°F11.8°C 51% 7.6 mph N12.2 kmh N 10.7 mph17.2 kmh 30.42 in1030.1 mb 0.00 in0.0 mm 0.00 in0.0 mm 0.00 in0.0 mm
01:45 PM 72.3°F22.4°C 53.2°F11.8°C 51% 6.0 mph N9.7 kmh N 9.8 mph15.8 kmh 30.42 in1030.1 mb 0.00 in0.0 mm 0.00 in0.0 mm 0.00 in0.0 mm
02:00 PM 72.7°F22.6°C 51.9°F11.1°C 48% 7.6 mph N12.2 kmh N 10.7 mph17.2 kmh 30.42 in1030.1 mb 0.00 in0.0 mm 0.00 in0.0 mm 0.00 in0.0 mm
02:15 PM 72.9°F22.7°C 51.4°F10.8°C 47% 7.6 mph N12.2 kmh N 10.7 mph17.2 kmh 30.41 in1029.8 mb 0.00 in0.0 mm 0.00 in0.0 mm 0.00 in0.0 mm
02:30 PM 73.4°F23.0°C 51.4°F10.8°C 46% 3.8 mph NE6.1 kmh NE 13.0 mph20.9 kmh 30.41 in1029.8 mb 0.00 in0.0 mm 0.00 in0.0 mm 0.00 in0.0 mm
02:45 PM 73.8°F23.2°C 51.1°F10.6°C 45% 6.9 mph NNE11.1 kmh NNE 12.1 mph19.5 kmh 30.40 in1029.5 mb 0.00 in0.0 mm 0.00 in0.0 mm 0.00 in0.0 mm
03:00 PM 73.8°F23.2°C 51.1°F10.6°C 45% 3.1 mph NNW5.0 kmh NNW 9.8 mph15.8 kmh 30.40 in1029.5 mb 0.00 in0.0 mm 0.00 in0.0 mm 0.00 in0.0 mm
03:15 PM 73.9°F23.3°C 50.6°F10.3°C 44% 7.6 mph N12.2 kmh N 9.8 mph15.8 kmh 30.40 in1029.5 mb 0.00 in0.0 mm 0.00 in0.0 mm 0.00 in0.0 mm
03:30 PM 74.1°F23.4°C 50.2°F10.1°C 43% 6.0 mph NW9.7 kmh NW 12.1 mph19.5 kmh 30.39 in1029.1 mb 0.00 in0.0 mm 0.00 in0.0 mm 0.00 in0.0 mm
03:45 PM 74.3°F23.5°C 50.4°F10.2°C 43% 10.7 mph NNE17.2 kmh NNE 13.0 mph20.9 kmh 30.40 in1029.5 mb 0.00 in0.0 mm 0.00 in0.0 mm 0.00 in0.0 mm
04:00 PM 73.2°F22.9°C 50.0°F10.0°C 44% 9.2 mph N14.8 kmh N 13.0 mph20.9 kmh 30.40 in1029.5 mb 0.00 in0.0 mm 0.00 in0.0 mm 0.00 in0.0 mm
04:15 PM 72.7°F22.6°C 49.5°F9.7°C 44% 8.3 mph N13.4 kmh N 10.7 mph17.2 kmh 30.40 in1029.5 mb 0.00 in0.0 mm 0.00 in0.0 mm 0.00 in0.0 mm
04:30 PM 72.5°F22.5°C 49.3°F9.6°C 44% 3.8 mph NNE6.1 kmh NNE 6.0 mph9.7 kmh 30.40 in1029.5 mb 0.00 in0.0 mm 0.00 in0.0 mm 0.00 in0.0 mm
04:45 PM 72.1°F22.3°C 52.5°F11.4°C 50% 3.1 mph N5.0 kmh N 9.2 mph14.8 kmh 30.39 in1029.1 mb 0.00 in0.0 mm 0.00 in0.0 mm 0.00 in0.0 mm
05:00 PM 72.0°F22.2°C 52.3°F11.3°C 50% 6.0 mph N9.7 kmh N 7.6 mph12.2 kmh 30.41 in1029.8 mb 0.00 in0.0 mm 0.00 in0.0 mm 0.00 in0.0 mm
05:15 PM 71.8°F22.1°C 52.7°F11.5°C 51% 9.8 mph NNW15.8 kmh NNW 13.6 mph21.9 kmh 30.41 in1029.8 mb 0.00 in0.0 mm 0.00 in0.0 mm 0.00 in0.0 mm
05:30 PM 71.1°F21.7°C 52.0°F11.1°C 51% 8.3 mph N13.4 kmh N 11.4 mph18.3 kmh 30.41 in1029.8 mb 0.00 in0.0 mm 0.00 in0.0 mm 0.00 in0.0 mm
05:45 PM 71.4°F21.9°C 52.9°F11.6°C 52% 5.4 mph NNW8.7 kmh NNW 9.8 mph15.8 kmh 30.40 in1029.5 mb 0.00 in0.0 mm 0.00 in0.0 mm 0.00 in0.0 mm
06:00 PM 71.2°F21.8°C 52.2°F11.2°C 51% 3.8 mph N6.1 kmh N 10.7 mph17.2 kmh 30.39 in1029.1 mb 0.00 in0.0 mm 0.00 in0.0 mm 0.00 in0.0 mm
06:15 PM 70.9°F21.6°C 51.8°F11.0°C 51% 3.8 mph N6.1 kmh N 7.6 mph12.2 kmh 30.39 in1029.1 mb 0.00 in0.0 mm 0.00 in0.0 mm 0.00 in0.0 mm
06:30 PM 70.2°F21.2°C 51.7°F10.9°C 52% 1.6 mph N2.6 kmh N 7.6 mph12.2 kmh 30.39 in1029.1 mb 0.00 in0.0 mm 0.00 in0.0 mm 0.00 in0.0 mm
06:45 PM 69.4°F20.8°C 52.1°F11.2°C 54% 2.2 mph N3.5 kmh N 3.1 mph5.0 kmh 30.39 in1029.1 mb 0.00 in0.0 mm 0.00 in0.0 mm 0.00 in0.0 mm
07:00 PM 68.7°F20.4°C 52.9°F11.6°C 57% 3.1 mph N5.0 kmh N 3.8 mph6.1 kmh 30.39 in1029.1 mb 0.00 in0.0 mm 0.00 in0.0 mm 0.00 in0.0 mm
07:15 PM 67.5°F19.7°C 53.1°F11.7°C 60% 2.2 mph N3.5 kmh N 3.1 mph5.0 kmh 30.39 in1029.1 mb 0.00 in0.0 mm 0.00 in0.0 mm 0.00 in0.0 mm
07:30 PM 66.9°F19.4°C 52.6°F11.4°C 60% 1.6 mph N2.6 kmh N 3.8 mph6.1 kmh 30.40 in1029.5 mb 0.00 in0.0 mm 0.00 in0.0 mm 0.00 in0.0 mm
07:45 PM 66.6°F19.2°C 53.1°F11.7°C 62% Calm Calm 2.2 mph3.5 kmh 30.40 in1029.5 mb 0.00 in0.0 mm 0.00 in0.0 mm 0.00 in0.0 mm
08:00 PM 66.2°F19.0°C 53.7°F12.1°C 64% Calm Calm 0.7 mph1.1 kmh 30.39 in1029.1 mb 0.00 in0.0 mm 0.00 in0.0 mm 0.00 in0.0 mm
08:15 PM 65.7°F18.7°C 54.0°F12.2°C 66% Calm Calm -- 30.40 in1029.5 mb 0.00 in0.0 mm 0.00 in0.0 mm 0.00 in0.0 mm
08:30 PM 64.8°F18.2°C 53.1°F11.7°C 66% Calm Calm 1.6 mph2.6 kmh 30.40 in1029.5 mb 0.00 in0.0 mm 0.00 in0.0 mm 0.00 in0.0 mm
08:45 PM 63.9°F17.7°C 53.1°F11.7°C 68% 1.6 mph NW2.6 kmh NW 3.1 mph5.0 kmh 30.40 in1029.5 mb 0.00 in0.0 mm 0.00 in0.0 mm 0.00 in0.0 mm
09:00 PM 63.3°F17.4°C 54.1°F12.3°C 72% 1.6 mph NW2.6 kmh NW 3.8 mph6.1 kmh 30.40 in1029.5 mb 0.00 in0.0 mm 0.00 in0.0 mm 0.00 in0.0 mm
09:15 PM 63.1°F17.3°C 54.3°F12.4°C 73% 0.7 mph NW1.1 kmh NW 3.1 mph5.0 kmh 30.41 in1029.8 mb 0.00 in0.0 mm 0.00 in0.0 mm 0.00 in0.0 mm
09:30 PM 62.8°F17.1°C 54.0°F12.2°C 73% 1.6 mph NW2.6 kmh NW 3.1 mph5.0 kmh 30.40 in1029.5 mb 0.00 in0.0 mm 0.00 in0.0 mm 0.00 in0.0 mm
09:45 PM 62.6°F17.0°C 54.2°F12.3°C 74% 0.7 mph NW1.1 kmh NW 2.2 mph3.5 kmh 30.40 in1029.5 mb 0.00 in0.0 mm 0.00 in0.0 mm 0.00 in0.0 mm
10:00 PM 62.1°F16.7°C 54.0°F12.2°C 75% 0.7 mph NW1.1 kmh NW 1.6 mph2.6 kmh 30.40 in1029.5 mb 0.00 in0.0 mm 0.00 in0.0 mm 0.00 in0.0 mm
10:15 PM 61.5°F16.4°C 53.9°F12.2°C 76% 0.7 mph NW1.1 kmh NW 3.1 mph5.0 kmh 30.40 in1029.5 mb 0.00 in0.0 mm 0.00 in0.0 mm 0.00 in0.0 mm
10:30 PM 61.2°F16.2°C 53.9°F12.2°C 77% 0.7 mph NW1.1 kmh NW 4.5 mph7.2 kmh 30.40 in1029.5 mb 0.00 in0.0 mm 0.00 in0.0 mm 0.00 in0.0 mm
10:45 PM 61.0°F16.1°C 54.1°F12.3°C 78% 2.2 mph NW3.5 kmh NW 3.8 mph6.1 kmh 30.40 in1029.5 mb 0.00 in0.0 mm 0.00 in0.0 mm 0.00 in0.0 mm
11:00 PM 60.8°F16.0°C 54.2°F12.3°C 79% 1.6 mph NW2.6 kmh NW 3.1 mph5.0 kmh 30.40 in1029.5 mb 0.00 in0.0 mm 0.00 in0.0 mm 0.00 in0.0 mm
11:15 PM 60.8°F16.0°C 54.6°F12.6°C 80% 1.6 mph NW2.6 kmh NW 2.2 mph3.5 kmh 30.39 in1029.1 mb 0.00 in0.0 mm 0.00 in0.0 mm 0.00 in0.0 mm
11:30 PM 60.6°F15.9°C 54.4°F12.4°C 80% 1.6 mph NW2.6 kmh NW 2.2 mph3.5 kmh 30.39 in1029.1 mb 0.00 in0.0 mm 0.00 in0.0 mm 0.00 in0.0 mm
11:45 PM 60.3°F15.7°C 54.1°F12.3°C 80% 0.7 mph NW1.1 kmh NW 3.1 mph5.0 kmh 30.39 in1029.1 mb 0.00 in0.0 mm 0.00 in0.0 mm 0.00 in0.0 mm